Time;durP1;ratioP1;P1;durP2;ratioP2;P2;SDS_P1;SDS_P2;PMS_P1;PMS_P2;Temp;Humidity;BMP_temperature;BMP_pressure;BME280_temperature;BME280_humidity;BME280_pressure;Samples;Min_cycle;Max_cycle;Signal;HPM_P1;HPM_P2
2021/03/09 00:01:30;;;;;;;31.83;22.03;;;7.00;39.00;;;;;;5074515;28;20588;-77
2021/03/09 00:03:55;;;;;;;33.93;22.73;;;7.00;37.60;;;;;;5074451;28;20614;-79
2021/03/09 00:06:21;;;;;;;34.07;23.57;;;7.00;41.10;;;;;;5074523;28;20243;-85
2021/03/09 00:08:46;;;;;;;36.70;24.13;;;7.10;41.20;;;;;;5072912;28;20192;-83
2021/03/09 00:11:12;;;;;;;35.93;23.80;;;7.20;44.30;;;;;;5072245;28;20219;-82
2021/03/09 00:13:38;;;;;;;34.47;23.20;;;7.10;39.80;;;;;;5053424;28;20602;-79
2021/03/09 00:16:03;;;;;;;35.43;23.57;;;7.00;41.70;;;;;;5073789;28;20175;-81
2021/03/09 00:18:29;;;;;;;31.63;22.57;;;6.90;41.80;;;;;;5073687;28;20176;-88
2021/03/09 00:20:55;;;;;;;36.83;23.37;;;6.80;45.00;;;;;;5074207;28;20516;-81
2021/03/09 00:23:20;;;;;;;31.93;22.70;;;6.80;48.30;;;;;;5073794;28;20214;-77
2021/03/09 00:25:46;;;;;;;33.13;23.20;;;6.80;47.60;;;;;;5073243;28;20161;-80
2021/03/09 00:28:11;;;;;;;32.57;22.87;;;6.80;48.40;;;;;;5072508;28;20241;-79
2021/03/09 00:30:37;;;;;;;32.10;21.13;;;6.90;49.80;;;;;;5073846;28;20195;-85
2021/03/09 00:33:03;;;;;;;34.27;24.00;;;6.80;49.90;;;;;;5073675;28;20165;-84
2021/03/09 00:35:28;;;;;;;34.83;22.47;;;6.80;51.90;;;;;;5073791;28;20202;-78
2021/03/09 00:37:54;;;;;;;34.47;23.37;;;6.80;51.30;;;;;;5074017;28;20174;-80
2021/03/09 00:40:20;;;;;;;33.27;22.73;;;6.80;53.10;;;;;;5073194;28;20168;-79
2021/03/09 00:42:46;;;;;;;32.07;22.13;;;6.90;50.40;;;;;;5073972;28;20160;-78
2021/03/09 00:45:12;;;;;;;35.13;22.23;;;6.80;53.00;;;;;;5073840;28;20290;-79
2021/03/09 00:47:37;;;;;;;33.07;23.03;;;6.80;53.00;;;;;;5073747;28;20651;-81
2021/03/09 00:50:04;;;;;;;31.43;21.93;;;6.70;55.30;;;;;;5055135;28;20215;-79
2021/03/09 00:52:29;;;;;;;31.70;21.87;;;6.80;52.20;;;;;;5055632;28;20653;-83
2021/03/09 00:54:55;;;;;;;31.97;21.93;;;6.90;53.90;;;;;;5073157;28;20251;-83
2021/03/09 00:57:20;;;;;;;31.63;22.23;;;6.80;56.30;;;;;;5073403;28;20160;-85
2021/03/09 00:59:46;;;;;;;32.93;22.67;;;6.80;55.00;;;;;;5073551;28;20200;-77
2021/03/09 01:02:12;;;;;;;33.93;23.57;;;6.80;55.60;;;;;;5075822;28;20250;-78
2021/03/09 01:04:37;;;;;;;33.03;23.23;;;6.80;57.80;;;;;;5073177;28;20223;-78
2021/03/09 01:07:03;;;;;;;35.40;23.50;;;6.80;58.80;;;;;;5073391;28;20172;-79
2021/03/09 01:09:29;;;;;;;36.40;24.57;;;6.80;58.90;;;;;;5072948;28;20214;-82
2021/03/09 01:11:54;;;;;;;34.10;22.73;;;6.80;60.80;;;;;;5073112;28;20168;-88
2021/03/09 01:14:20;;;;;;;32.13;23.73;;;6.80;62.70;;;;;;5073205;28;20207;-89
2021/03/09 01:16:45;;;;;;;36.43;24.03;;;6.70;64.40;;;;;;5055383;28;20164;-78
2021/03/09 01:19:11;;;;;;;37.00;25.07;;;6.80;64.00;;;;;;5072675;28;20651;-82
2021/03/09 01:21:37;;;;;;;35.47;23.77;;;6.60;65.20;;;;;;5055266;28;20171;-83
2021/03/09 01:24:02;;;;;;;36.00;24.90;;;6.50;67.40;;;;;;5072845;28;20191;-78
2021/03/09 01:26:29;;;;;;;35.60;24.83;;;6.40;68.30;;;;;;5073124;28;20651;-78
2021/03/09 01:28:55;;;;;;;37.50;25.67;;;6.40;69.40;;;;;;5054979;28;20211;-78
2021/03/09 01:31:20;;;;;;;37.17;26.40;;;6.30;72.20;;;;;;5072883;28;20172;-78
2021/03/09 01:33:46;;;;;;;36.17;24.60;;;6.30;72.30;;;;;;5073234;28;20172;-78
2021/03/09 01:36:11;;;;;;;38.97;26.50;;;6.30;73.10;;;;;;5073169;28;20252;-80
2021/03/09 01:38:37;;;;;;;40.93;26.27;;;6.10;76.20;;;;;;5072932;28;20293;-78
2021/03/09 01:41:03;;;;;;;39.83;25.13;;;6.10;78.70;;;;;;5073241;28;20172;-81
2021/03/09 01:43:31;;;;;;;38.07;27.77;;;6.00;78.40;;;;;;5073027;28;20198;-87
2021/03/09 01:45:57;;;;;;;39.47;26.00;;;6.00;80.60;;;;;;5072912;28;20593;-87
2021/03/09 01:48:30;;;;;;;43.10;26.37;;;6.00;81.10;;;;;;5072246;28;20238;-79
2021/03/09 01:50:55;;;;;;;40.30;25.80;;;6.00;80.90;;;;;;5072334;28;20694;-77
2021/03/09 01:53:21;;;;;;;39.87;26.50;;;6.00;80.90;;;;;;5072343;28;20172;-77
2021/03/09 01:55:47;;;;;;;39.37;26.93;;;6.00;81.50;;;;;;5054701;28;20176;-79
2021/03/09 01:58:14;;;;;;;40.23;26.70;;;6.10;81.40;;;;;;5072785;28;20698;-79
2021/03/09 02:00:40;;;;;;;36.63;23.97;;;6.00;80.40;;;;;;5054849;28;20175;-84
2021/03/09 02:03:07;;;;;;;39.00;24.87;;;5.90;83.30;;;;;;5072808;28;20226;-80
2021/03/09 02:05:32;;;;;;;38.10;26.27;;;6.00;84.20;;;;;;5072513;28;20255;-88
2021/03/09 02:07:59;;;;;;;38.97;26.97;;;6.00;84.60;;;;;;5072316;28;20600;-84
2021/03/09 02:10:26;;;;;;;39.03;25.47;;;6.00;86.00;;;;;;5072664;28;20196;-82
2021/03/09 02:13:12;;;;;;;35.90;24.97;;;5.90;86.50;;;;;;5072825;28;20252;-78
2021/03/09 02:15:57;;;;;;;38.43;25.20;;;5.90;84.90;;;;;;5054752;28;20640;-80
2021/03/09 02:18:35;;;;;;;39.10;26.43;;;5.90;87.70;;;;;;5072800;28;20168;-89
2021/03/09 02:21:25;;;;;;;36.33;24.33;;;6.10;83.90;;;;;;5072116;28;20171;-85
2021/03/09 02:24:00;;;;;;;37.13;24.23;;;6.20;84.10;;;;;;5054473;28;20169;-77
2021/03/09 02:26:32;;;;;;;37.43;25.07;;;6.10;85.40;;;;;;5072521;28;20179;-79
2021/03/09 02:29:19;;;;;;;39.57;26.27;;;5.90;87.00;;;;;;5054162;28;20262;-79
2021/03/09 02:31:49;;;;;;;37.43;24.83;;;6.00;86.50;;;;;;5055360;28;20168;-78
2021/03/09 02:34:24;;;;;;;41.93;26.73;;;6.20;85.70;;;;;;5058097;28;20172;-82
2021/03/09 02:36:50;;;;;;;38.97;25.40;;;6.20;83.50;;;;;;5057603;28;20643;-82
2021/03/09 02:39:17;;;;;;;35.87;24.93;;;6.20;85.10;;;;;;5075823;28;20541;-80
2021/03/09 02:41:46;;;;;;;37.37;25.67;;;6.20;87.40;;;;;;5075829;28;20175;-78
2021/03/09 02:44:17;;;;;;;42.00;26.53;;;6.20;86.30;;;;;;5076074;28;20176;-79
2021/03/09 02:46:46;;;;;;;37.20;25.37;;;6.20;85.80;;;;;;5058094;28;20176;-86
2021/03/09 02:49:13;;;;;;;35.73;23.83;;;6.20;85.90;;;;;;5075510;28;20731;-82
2021/03/09 02:51:42;;;;;;;33.03;24.23;;;6.00;89.50;;;;;;5075277;28;20667;-78
2021/03/09 02:54:09;;;;;;;37.03;25.63;;;6.00;90.20;;;;;;5075594;28;20172;-84
2021/03/09 02:56:37;;;;;;;37.07;24.60;;;6.10;89.20;;;;;;5075564;28;20203;-80
2021/03/09 02:59:07;;;;;;;37.57;25.23;;;6.00;89.10;;;;;;5075830;28;20156;-78
2021/03/09 03:01:33;;;;;;;36.67;25.73;;;6.00;90.20;;;;;;5075467;28;20662;-87
2021/03/09 03:04:00;;;;;;;34.90;24.60;;;6.00;91.20;;;;;;5074964;28;20648;-85
2021/03/09 03:06:28;;;;;;;34.57;24.50;;;6.00;91.20;;;;;;5075332;28;20198;-78
2021/03/09 03:08:56;;;;;;;34.30;23.67;;;6.10;91.50;;;;;;5075342;28;20238;-79
2021/03/09 03:11:23;;;;;;;36.53;24.37;;;6.10;90.70;;;;;;5074995;28;20175;-78
2021/03/09 03:13:50;;;;;;;32.93;23.27;;;6.10;90.90;;;;;;5056973;28;20199;-84
2021/03/09 03:16:19;;;;;;;38.57;23.77;;;6.00;91.60;;;;;;5075350;28;20213;-78
2021/03/09 03:18:46;;;;;;;33.47;23.57;;;6.00;91.20;;;;;;5074562;28;20168;-88
2021/03/09 03:21:14;;;;;;;33.97;21.90;;;6.00;90.80;;;;;;5075059;28;20275;-79
2021/03/09 03:23:41;;;;;;;33.17;23.00;;;5.90;91.20;;;;;;5075121;28;20168;-78
2021/03/09 03:26:09;;;;;;;31.93;23.40;;;5.90;92.40;;;;;;5075116;28;20168;-78
2021/03/09 03:28:39;;;;;;;32.17;20.47;;;5.80;92.90;;;;;;5074655;28;20188;-82
2021/03/09 03:31:05;;;;;;;32.70;23.00;;;5.80;92.80;;;;;;5074803;28;20263;-81
2021/03/09 03:33:32;;;;;;;35.13;23.77;;;5.90;93.20;;;;;;5074821;28;20167;-78
2021/03/09 03:36:04;;;;;;;34.77;23.33;;;5.80;93.50;;;;;;5074994;28;20168;-86
2021/03/09 03:38:40;;;;;;;34.00;22.53;;;5.70;93.60;;;;;;5040703;28;20271;-78
2021/03/09 03:41:07;;;;;;;32.10;21.97;;;5.70;94.20;;;;;;5074878;28;20164;-82
2021/03/09 03:43:34;;;;;;;32.97;22.63;;;5.80;94.60;;;;;;5074392;28;20168;-82
2021/03/09 03:45:59;;;;;;;30.93;21.70;;;5.80;93.70;;;;;;5074922;28;20240;-84
2021/03/09 03:48:26;;;;;;;32.13;21.50;;;5.80;93.70;;;;;;5074479;28;20282;-79
2021/03/09 03:50:54;;;;;;;33.20;23.07;;;5.80;93.30;;;;;;5056512;28;20223;-79
2021/03/09 03:53:57;;;;;;;33.97;21.40;;;5.90;92.80;;;;;;5074590;28;20172;-81
2021/03/09 03:56:37;;;;;;;33.43;22.83;;;5.80;92.50;;;;;;5074806;28;20209;-78
2021/03/09 03:59:13;;;;;;;34.33;22.60;;;5.80;93.50;;;;;;5074015;28;20164;-84
2021/03/09 04:01:41;;;;;;;34.40;22.70;;;5.70;94.10;;;;;;5056896;28;20180;-78
2021/03/09 04:04:10;;;;;;;33.60;23.00;;;5.70;94.30;;;;;;5074403;28;20168;-80
2021/03/09 04:06:38;;;;;;;31.97;22.27;;;5.70;94.80;;;;;;5056545;28;20172;-78
2021/03/09 04:09:05;;;;;;;36.27;23.03;;;5.80;94.20;;;;;;5074267;28;20279;-80
2021/03/09 04:11:32;;;;;;;35.57;23.03;;;5.80;94.10;;;;;;5074305;28;20161;-80
2021/03/09 04:14:00;;;;;;;34.30;23.53;;;5.70;94.20;;;;;;5074381;28;20632;-79
2021/03/09 04:16:30;;;;;;;34.33;22.57;;;5.80;94.70;;;;;;5074006;28;20215;-79
2021/03/09 04:18:56;;;;;;;34.33;23.47;;;5.70;94.40;;;;;;5074170;28;20173;-79
2021/03/09 04:21:25;;;;;;;33.30;22.57;;;5.80;94.80;;;;;;5056432;28;20189;-80
2021/03/09 04:23:52;;;;;;;35.03;23.73;;;5.80;94.10;;;;;;5074416;28;20169;-80
2021/03/09 04:26:18;;;;;;;36.23;23.67;;;5.80;93.80;;;;;;5073690;28;20639;-84
2021/03/09 04:28:44;;;;;;;36.03;24.13;;;5.80;94.30;;;;;;5056182;28;20200;-85
2021/03/09 04:31:10;;;;;;;37.03;23.97;;;6.00;93.00;;;;;;5073778;28;20179;-79
2021/03/09 04:33:36;;;;;;;36.63;24.90;;;6.10;91.70;;;;;;5073547;28;20164;-87
2021/03/09 04:36:04;;;;;;;36.10;23.87;;;6.10;91.10;;;;;;5073858;28;20168;-85
2021/03/09 04:38:30;;;;;;;37.27;24.53;;;6.00;91.60;;;;;;5073657;28;20191;-78
2021/03/09 04:40:57;;;;;;;33.33;24.07;;;5.80;92.90;;;;;;5076283;28;20165;-87
2021/03/09 04:43:23;;;;;;;37.83;25.10;;;6.00;93.30;;;;;;5073868;28;20660;-79
2021/03/09 04:45:48;;;;;;;36.60;25.30;;;6.00;91.30;;;;;;5073645;28;20261;-87
2021/03/09 04:48:14;;;;;;;39.13;24.27;;;5.90;91.20;;;;;;5074435;28;20179;-78
2021/03/09 04:50:43;;;;;;;37.30;24.50;;;5.80;92.10;;;;;;5073833;28;20679;-88
2021/03/09 04:53:08;;;;;;;37.87;23.37;;;5.90;93.30;;;;;;5074671;28;20164;-80
2021/03/09 04:55:34;;;;;;;39.10;25.20;;;5.80;92.60;;;;;;5056187;28;20230;-84
2021/03/09 04:58:02;;;;;;;34.40;25.67;;;5.70;93.20;;;;;;5074114;28;20168;-83
2021/03/09 05:00:29;;;;;;;37.67;24.60;;;5.80;93.40;;;;;;5056798;28;20172;-78
2021/03/09 05:02:54;;;;;;;35.57;24.20;;;5.80;93.00;;;;;;5075552;28;20226;-80
2021/03/09 05:05:22;;;;;;;37.23;25.17;;;5.80;92.70;;;;;;5057746;28;20579;-86
2021/03/09 05:07:48;;;;;;;34.27;24.17;;;5.70;92.70;;;;;;5074025;28;20171;-81
2021/03/09 05:10:15;;;;;;;39.83;26.50;;;5.70;93.20;;;;;;5073953;28;20208;-78
2021/03/09 05:12:43;;;;;;;39.00;25.63;;;5.70;93.10;;;;;;5074116;28;20169;-78
2021/03/09 05:15:09;;;;;;;35.40;23.50;;;5.70;93.30;;;;;;5055510;28;20175;-82
2021/03/09 05:17:35;;;;;;;37.40;24.17;;;5.80;93.10;;;;;;5073580;28;20183;-85
2021/03/09 05:20:02;;;;;;;36.17;25.00;;;5.70;92.40;;;;;;5055844;28;20184;-85
2021/03/09 05:22:28;;;;;;;32.60;24.00;;;5.80;92.40;;;;;;5073469;28;20175;-78
2021/03/09 05:24:54;;;;;;;38.50;24.60;;;5.80;92.30;;;;;;5073233;28;20255;-84
2021/03/09 05:27:19;;;;;;;41.63;25.87;;;5.80;92.50;;;;;;5054946;28;20178;-79
2021/03/09 05:29:45;;;;;;;43.70;27.10;;;5.90;91.90;;;;;;5072532;28;20208;-83
2021/03/09 05:32:10;;;;;;;36.07;24.83;;;5.80;92.00;;;;;;5054965;28;20183;-78
2021/03/09 05:34:36;;;;;;;38.03;25.73;;;5.80;91.90;;;;;;5073164;28;20202;-86
2021/03/09 05:37:02;;;;;;;38.00;25.83;;;5.70;92.00;;;;;;5073470;28;20248;-77
2021/03/09 05:39:27;;;;;;;39.07;25.57;;;5.80;91.90;;;;;;5073276;28;20484;-81
2021/03/09 05:41:53;;;;;;;34.90;23.57;;;5.80;91.90;;;;;;5072966;28;20165;-78
2021/03/09 05:44:19;;;;;;;42.07;26.47;;;5.80;92.40;;;;;;5072823;28;20600;-77
2021/03/09 05:46:45;;;;;;;38.10;25.07;;;5.70;92.40;;;;;;5073102;28;20695;-82
2021/03/09 05:49:11;;;;;;;37.13;26.07;;;5.80;92.50;;;;;;5072943;28;20253;-82
2021/03/09 05:51:37;;;;;;;40.93;26.03;;;6.00;91.00;;;;;;5072936;28;20184;-88
2021/03/09 05:54:03;;;;;;;39.47;25.07;;;5.90;90.30;;;;;;5055079;28;20177;-85
2021/03/09 05:56:29;;;;;;;37.87;25.33;;;5.90;90.30;;;;;;5072383;28;20677;-80
2021/03/09 05:58:55;;;;;;;40.80;27.13;;;5.90;89.90;;;;;;5072739;28;20172;-80
2021/03/09 06:01:20;;;;;;;36.47;25.10;;;5.90;88.60;;;;;;5055070;28;20186;-81
2021/03/09 06:03:46;;;;;;;38.77;25.33;;;6.00;88.10;;;;;;5072915;28;20176;-83
2021/03/09 06:06:14;;;;;;;40.37;26.47;;;6.00;88.40;;;;;;5074797;28;20175;-78
2021/03/09 06:08:40;;;;;;;40.83;26.27;;;6.20;84.40;;;;;;5076487;28;20664;-89
2021/03/09 06:11:17;;;;;;;40.67;26.67;;;6.10;82.50;;;;;;5076334;28;20173;-83
2021/03/09 06:13:44;;;;;;;38.83;26.67;;;6.00;86.80;;;;;;5077242;28;20628;-87
2021/03/09 06:16:11;;;;;;;39.13;25.00;;;6.00;85.20;;;;;;5059888;28;20184;-81
2021/03/09 06:18:37;;;;;;;44.07;27.30;;;5.90;85.90;;;;;;5077019;28;20624;-79
2021/03/09 06:21:13;;;;;;;38.73;25.87;;;5.90;87.70;;;;;;5076009;28;20188;-89
2021/03/09 06:23:40;;;;;;;40.03;26.37;;;5.80;90.00;;;;;;5076402;28;20189;-82
2021/03/09 06:26:35;;;;;;;41.87;26.57;;;5.90;90.00;;;;;;5077200;28;20168;-87
2021/03/09 06:29:15;;;;;;;41.47;26.50;;;6.00;89.10;;;;;;5076436;28;20196;-78
2021/03/09 06:31:58;;;;;;;41.47;27.53;;;6.20;84.80;;;;;;5076951;28;20225;-80
2021/03/09 06:34:30;;;;;;;38.50;25.80;;;6.10;82.50;;;;;;5077678;28;20194;-84
2021/03/09 06:37:22;;;;;;;40.77;27.13;;;6.20;79.90;;;;;;5057597;28;20632;-79
2021/03/09 06:40:07;;;;;;;46.10;27.93;;;6.20;80.50;;;;;;5075863;28;20697;-79
2021/03/09 06:42:36;;;;;;;40.63;27.40;;;6.10;80.00;;;;;;5075915;28;20172;-88
2021/03/09 06:45:05;;;;;;;43.53;28.30;;;6.10;82.10;;;;;;5057994;28;20218;-79
2021/03/09 06:47:34;;;;;;;42.10;26.93;;;6.20;81.00;;;;;;5075789;28;20628;-85
2021/03/09 06:50:00;;;;;;;40.23;26.93;;;6.10;81.10;;;;;;5074288;28;20712;-84
2021/03/09 06:52:27;;;;;;;44.27;26.90;;;6.20;81.10;;;;;;5057185;28;20183;-83
2021/03/09 06:54:54;;;;;;;43.10;26.90;;;6.10;80.60;;;;;;5075000;28;20180;-80
2021/03/09 06:57:20;;;;;;;45.13;27.23;;;6.20;79.60;;;;;;5074241;28;20187;-82
2021/03/09 06:59:49;;;;;;;41.40;27.60;;;6.20;79.00;;;;;;5056613;28;20389;-83
2021/03/09 07:02:22;;;;;;;43.77;26.70;;;6.10;81.30;;;;;;5056792;28;20183;-82
2021/03/09 07:05:10;;;;;;;44.63;26.63;;;6.20;77.90;;;;;;5056162;28;20191;-80
2021/03/09 07:07:38;;;;;;;45.67;26.60;;;6.20;76.90;;;;;;5074190;28;20175;-79
2021/03/09 07:10:18;;;;;;;44.57;27.73;;;6.20;80.00;;;;;;5074066;28;20211;-80
2021/03/09 07:12:48;;;;;;;42.67;26.80;;;6.40;78.30;;;;;;5056781;28;20211;-82
2021/03/09 07:15:18;;;;;;;41.60;27.63;;;6.50;75.20;;;;;;5074803;28;20196;-82
2021/03/09 07:17:46;;;;;;;41.03;26.97;;;6.40;71.90;;;;;;5073220;28;20251;-84
2021/03/09 07:20:15;;;;;;;37.87;25.90;;;6.40;70.00;;;;;;5074245;28;20658;-83
2021/03/09 07:22:42;;;;;;;46.70;28.10;;;6.20;72.30;;;;;;5074129;28;20199;-84
2021/03/09 07:25:14;;;;;;;49.80;26.30;;;6.30;74.60;;;;;;5074302;28;20169;-86
2021/03/09 07:27:54;;;;;;;47.53;26.97;;;6.20;78.00;;;;;;5056588;28;20168;-83
2021/03/09 07:30:22;;;;;;;43.03;27.80;;;6.30;78.80;;;;;;5073199;28;20644;-84
2021/03/09 07:32:54;;;;;;;38.07;26.93;;;6.30;75.30;;;;;;5074247;28;20171;-79
2021/03/09 07:35:31;;;;;;;42.07;25.77;;;6.40;75.70;;;;;;5074140;28;20184;-82
2021/03/09 07:37:58;;;;;;;41.23;26.83;;;6.50;69.00;;;;;;5071687;28;20160;-80
2021/03/09 07:40:29;;;;;;;40.93;27.60;;;6.50;69.10;;;;;;5071769;28;20188;-80
2021/03/09 07:42:58;;;;;;;41.83;27.37;;;6.50;70.00;;;;;;5073623;28;20184;-83
2021/03/09 07:45:26;;;;;;;42.77;28.17;;;6.50;72.30;;;;;;5073664;28;20168;-82
2021/03/09 07:48:16;;;;;;;42.80;28.07;;;6.60;68.30;;;;;;5055226;28;20168;-81
2021/03/09 07:50:44;;;;;;;47.93;27.07;;;6.70;67.10;;;;;;5055373;28;20220;-83
2021/03/09 07:53:18;;;;;;;41.07;26.83;;;6.80;63.80;;;;;;5055754;28;20168;-81
2021/03/09 07:56:09;;;;;;;42.57;27.10;;;6.80;62.70;;;;;;5073155;28;20164;-82
2021/03/09 07:58:35;;;;;;;40.57;26.40;;;6.80;62.20;;;;;;5072999;28;20168;-81
2021/03/09 08:01:09;;;;;;;38.90;25.80;;;6.60;66.40;;;;;;5072530;28;20540;-82
2021/03/09 08:03:36;;;;;;;43.53;28.43;;;6.60;68.30;;;;;;5073595;28;20525;-84
2021/03/09 08:06:02;;;;;;;45.23;28.80;;;6.60;70.80;;;;;;5073471;28;20225;-81
2021/03/09 08:08:51;;;;;;;43.30;29.30;;;6.70;70.70;;;;;;5072783;28;20253;-82
2021/03/09 08:11:19;;;;;;;40.13;27.67;;;6.80;70.90;;;;;;5073607;28;20157;-81
2021/03/09 08:14:08;;;;;;;41.27;28.33;;;6.90;70.10;;;;;;5054986;28;20713;-81
2021/03/09 08:16:42;;;;;;;38.77;27.23;;;7.00;64.20;;;;;;5040027;28;20608;-81
2021/03/09 08:19:37;;;;;;;44.03;29.17;;;6.90;64.30;;;;;;5072968;28;20659;-80
2021/03/09 08:22:07;;;;;;;45.63;27.30;;;7.00;65.70;;;;;;5072772;28;20245;-82
2021/03/09 08:24:41;;;;;;;40.63;28.07;;;7.00;63.60;;;;;;5054669;28;20514;-82
2021/03/09 08:27:29;;;;;;;41.93;26.93;;;6.90;67.10;;;;;;5073016;28;20296;-80
2021/03/09 08:29:57;;;;;;;39.87;27.80;;;6.90;67.20;;;;;;5071603;28;20222;-80
2021/03/09 08:32:26;;;;;;;46.10;29.13;;;6.90;68.80;;;;;;5055334;28;20175;-85
2021/03/09 08:35:11;;;;;;;47.13;28.57;;;7.00;69.90;;;;;;5055171;28;20240;-84
2021/03/09 08:37:41;;;;;;;44.83;28.20;;;6.90;68.90;;;;;;5054645;28;20528;-81
2021/03/09 08:40:07;;;;;;;49.97;28.67;;;7.10;66.50;;;;;;5054161;28;20199;-80
2021/03/09 08:42:58;;;;;;;45.03;28.57;;;7.00;67.10;;;;;;5034848;28;20177;-83
2021/03/09 08:45:42;;;;;;;44.07;29.23;;;7.00;68.90;;;;;;5054757;28;20290;-85
2021/03/09 08:48:10;;;;;;;43.77;28.33;;;7.00;72.80;;;;;;5035049;28;20287;-80
2021/03/09 08:50:40;;;;;;;45.17;29.50;;;7.10;72.00;;;;;;5037136;28;20223;-85
2021/03/09 08:53:26;;;;;;;43.60;29.60;;;7.20;69.70;;;;;;5068548;28;20255;-83
2021/03/09 08:56:10;;;;;;;44.50;28.73;;;7.20;69.10;;;;;;5054077;28;20172;-83
2021/03/09 08:58:40;;;;;;;40.63;28.83;;;7.10;73.20;;;;;;5072750;28;20196;-81
2021/03/09 09:01:07;;;;;;;43.47;30.10;;;7.10;75.60;;;;;;5034469;28;20173;-79
2021/03/09 09:03:33;;;;;;;41.53;29.17;;;7.10;75.60;;;;;;5052308;28;20169;-85
2021/03/09 09:05:59;;;;;;;44.63;30.43;;;7.00;80.60;;;;;;5034298;28;20168;-82
2021/03/09 09:08:25;;;;;;;44.93;30.80;;;6.90;85.60;;;;;;5044567;28;20176;-83
2021/03/09 09:10:52;;;;;;;47.63;31.97;;;7.00;86.60;;;;;;5072226;28;20538;-83
2021/03/09 09:13:30;;;;;;;50.17;32.60;;;7.20;88.20;;;;;;5054074;28;20226;-81
2021/03/09 09:15:55;;;;;;;48.10;32.03;;;7.30;88.10;;;;;;5053979;28;20210;-84
2021/03/09 09:18:22;;;;;;;45.00;30.57;;;7.30;90.10;;;;;;5054424;28;20592;-84
2021/03/09 09:20:49;;;;;;;48.07;31.13;;;7.30;90.10;;;;;;5053720;28;20207;-82
2021/03/09 09:23:23;;;;;;;46.37;32.03;;;7.40;90.30;;;;;;5053581;28;20354;-85
2021/03/09 09:26:00;;;;;;;47.07;32.13;;;7.30;90.40;;;;;;5054086;28;20175;-79
2021/03/09 09:28:30;;;;;;;52.43;33.40;;;7.30;92.00;;;;;;5053935;28;20176;-81
2021/03/09 09:31:01;;;;;;;49.87;32.67;;;7.40;92.40;;;;;;5054098;28;20195;-82
2021/03/09 09:33:30;;;;;;;50.97;33.33;;;7.40;92.10;;;;;;5054405;28;20187;-83
2021/03/09 09:35:57;;;;;;;47.10;33.67;;;7.50;93.10;;;;;;5053402;28;20628;-80
2021/03/09 09:38:23;;;;;;;48.07;32.67;;;7.50;93.80;;;;;;5071993;28;20183;-81
2021/03/09 09:40:55;;;;;;;48.93;34.37;;;7.40;93.00;;;;;;5055254;28;20168;-81
2021/03/09 09:43:24;;;;;;;46.30;31.57;;;7.40;94.50;;;;;;5076143;28;20176;-81
2021/03/09 09:45:56;;;;;;;49.60;33.63;;;7.30;95.00;;;;;;5058490;28;20221;-81
2021/03/09 09:48:25;;;;;;;51.27;35.37;;;7.30;95.90;;;;;;5079942;28;20168;-80
2021/03/09 09:50:53;;;;;;;47.40;33.23;;;7.50;96.60;;;;;;5075375;28;20291;-81
2021/03/09 09:53:40;;;;;;;48.57;34.77;;;7.60;96.90;;;;;;5076850;28;20613;-83
2021/03/09 09:56:26;;;;;;;46.53;33.37;;;7.70;96.50;;;;;;5076756;28;20699;-87
2021/03/09 09:59:01;;;;;;;47.30;32.17;;;7.60;95.10;;;;;;5072541;28;20188;-85
2021/03/09 10:01:32;;;;;;;47.63;33.73;;;7.50;95.70;;;;;;5057157;28;20179;-84
2021/03/09 10:04:04;;;;;;;48.60;34.17;;;7.40;96.80;;;;;;5056646;28;20183;-82
2021/03/09 10:06:37;;;;;;;48.37;35.03;;;7.40;97.50;;;;;;5056752;28;20230;-84
2021/03/09 10:09:18;;;;;;;54.27;37.17;;;7.40;97.90;;;;;;5074739;28;20196;-84
2021/03/09 10:11:57;;;;;;;51.33;35.83;;;7.40;98.30;;;;;;5074752;28;20230;-81
2021/03/09 10:14:33;;;;;;;61.37;38.87;;;7.40;98.90;;;;;;5057576;28;20705;-84
2021/03/09 10:16:59;;;;;;;57.10;40.03;;;7.50;99.50;;;;;;5074302;28;20168;-85
2021/03/09 10:19:37;;;;;;;57.03;37.80;;;7.50;99.90;;;;;;5052831;28;20287;-84
2021/03/09 10:22:03;;;;;;;52.47;37.10;;;7.70;99.90;;;;;;5075086;28;20199;-85
2021/03/09 10:24:31;;;;;;;51.40;36.83;;;7.80;99.00;;;;;;5057560;28;20176;-85
2021/03/09 10:26:59;;;;;;;51.27;37.13;;;7.80;98.50;;;;;;5057344;28;20230;-83
2021/03/09 10:29:27;;;;;;;53.53;38.37;;;7.80;98.50;;;;;;5075787;28;20203;-85
2021/03/09 10:32:03;;;;;;;53.57;37.67;;;7.80;98.50;;;;;;5061172;28;20584;-84
2021/03/09 10:34:40;;;;;;;51.63;36.87;;;7.90;98.50;;;;;;5056871;28;20195;-82
2021/03/09 10:37:09;;;;;;;48.27;34.60;;;8.00;98.20;;;;;;5059194;28;20179;-85
2021/03/09 10:39:38;;;;;;;47.33;35.23;;;8.00;97.50;;;;;;5075463;28;20483;-84
2021/03/09 10:42:24;;;;;;;49.63;34.20;;;7.90;97.90;;;;;;5057535;28;20176;-81
2021/03/09 10:44:49;;;;;;;47.67;33.57;;;7.90;98.40;;;;;;5074834;28;20588;-83
2021/03/09 10:47:15;;;;;;;46.57;35.50;;;8.00;98.20;;;;;;5075586;28;20668;-85
2021/03/09 10:49:41;;;;;;;47.70;35.40;;;8.00;98.70;;;;;;5074274;28;20708;-79
2021/03/09 10:52:08;;;;;;;44.20;32.23;;;8.30;98.60;;;;;;5055804;28;20168;-85
2021/03/09 10:54:35;;;;;;;39.73;30.97;;;8.30;97.70;;;;;;5075723;28;20260;-82
2021/03/09 10:57:07;;;;;;;39.60;30.03;;;8.20;96.50;;;;;;5058151;28;20169;-83
2021/03/09 10:59:33;;;;;;;39.10;31.73;;;8.40;95.80;;;;;;5058303;28;20651;-80
2021/03/09 11:01:59;;;;;;;40.43;31.10;;;8.40;94.80;;;;;;5060052;28;20173;-86
2021/03/09 11:04:24;;;;;;;44.17;32.50;;;8.40;95.50;;;;;;5076627;28;20284;-81
2021/03/09 11:06:50;;;;;;;53.10;32.00;;;8.20;96.20;;;;;;5075459;28;20247;-85
2021/03/09 11:09:16;;;;;;;40.23;30.10;;;8.40;96.20;;;;;;5075887;28;20687;-85
2021/03/09 11:11:43;;;;;;;38.33;29.10;;;8.50;94.50;;;;;;5074911;28;20172;-87
2021/03/09 11:14:09;;;;;;;36.43;29.00;;;8.50;93.80;;;;;;5075206;28;20636;-85
2021/03/09 11:16:35;;;;;;;38.43;29.33;;;8.50;92.60;;;;;;5073605;28;20180;-84
2021/03/09 11:19:01;;;;;;;36.33;29.47;;;8.50;93.10;;;;;;5056562;28;20636;-85
2021/03/09 11:21:27;;;;;;;37.83;30.10;;;8.60;92.30;;;;;;5075881;28;20171;-85
2021/03/09 11:23:54;;;;;;;35.10;27.97;;;8.70;92.20;;;;;;5057286;28;20184;-81
2021/03/09 11:26:24;;;;;;;34.57;27.20;;;8.60;91.50;;;;;;5057288;28;20220;-84
2021/03/09 11:28:52;;;;;;;37.50;26.93;;;8.60;91.90;;;;;;5056709;28;20267;-81
2021/03/09 11:31:19;;;;;;;35.23;27.00;;;8.60;91.80;;;;;;5075070;28;20278;-86
2021/03/09 11:33:45;;;;;;;35.53;28.13;;;8.60;92.30;;;;;;5075252;28;20169;-85
2021/03/09 11:36:12;;;;;;;36.07;26.73;;;8.60;92.40;;;;;;5073785;28;20168;-85
2021/03/09 11:38:45;;;;;;;33.17;26.83;;;8.60;93.40;;;;;;5056221;28;20528;-83
2021/03/09 11:41:15;;;;;;;30.60;23.53;;;8.60;93.40;;;;;;5073221;28;20227;-83
2021/03/09 11:43:41;;;;;;;29.37;23.73;;;8.50;93.80;;;;;;5057177;28;20176;-85
2021/03/09 11:46:09;;;;;;;34.77;25.87;;;8.40;94.60;;;;;;5074252;28;20650;-85
2021/03/09 11:48:36;;;;;;;33.03;26.37;;;8.40;96.30;;;;;;5072865;28;20194;-84
2021/03/09 11:51:02;;;;;;;29.27;24.87;;;8.40;97.30;;;;;;5054983;28;20628;-84
2021/03/09 11:53:27;;;;;;;30.67;23.77;;;8.50;97.80;;;;;;5054501;28;20207;-83
2021/03/09 11:55:54;;;;;;;32.23;24.30;;;8.50;97.70;;;;;;5056621;28;20184;-82
2021/03/09 11:58:20;;;;;;;30.47;22.63;;;8.50;97.70;;;;;;5072930;28;20199;-82
2021/03/09 12:00:45;;;;;;;27.60;21.57;;;8.60;98.60;;;;;;5055461;28;20176;-81
2021/03/09 12:03:11;;;;;;;21.50;18.60;;;8.80;97.20;;;;;;5073033;28;20168;-84
2021/03/09 12:05:37;;;;;;;26.40;21.07;;;8.50;96.30;;;;;;5055210;28;20164;-83
2021/03/09 12:08:03;;;;;;;26.17;21.33;;;8.60;97.30;;;;;;5072355;28;20165;-82
2021/03/09 12:10:40;;;;;;;23.50;19.47;;;8.60;97.50;;;;;;5054770;28;20692;-83
2021/03/09 12:13:06;;;;;;;22.60;18.90;;;8.50;98.10;;;;;;5073372;28;20207;-81
2021/03/09 12:15:31;;;;;;;24.57;20.80;;;8.60;98.80;;;;;;5054764;28;20196;-81
2021/03/09 12:17:57;;;;;;;28.67;21.20;;;8.80;99.00;;;;;;5072809;28;20160;-83
2021/03/09 12:20:23;;;;;;;25.20;20.40;;;8.90;98.40;;;;;;5073232;28;20238;-85
2021/03/09 12:22:49;;;;;;;24.80;19.90;;;8.90;98.00;;;;;;5055926;28;20184;-80
2021/03/09 12:25:14;;;;;;;25.70;20.70;;;8.60;98.30;;;;;;5073316;28;20247;-78
2021/03/09 12:27:41;;;;;;;24.80;20.87;;;8.80;98.30;;;;;;5073950;28;20273;-86
2021/03/09 12:30:08;;;;;;;23.60;18.90;;;8.70;98.80;;;;;;5073289;28;20227;-81
2021/03/09 12:32:35;;;;;;;24.17;20.90;;;8.80;98.90;;;;;;5073663;28;20168;-80
2021/03/09 12:35:01;;;;;;;25.03;21.20;;;8.80;98.70;;;;;;5073020;28;20167;-82
2021/03/09 12:37:26;;;;;;;23.33;20.73;;;8.80;98.30;;;;;;5072536;28;20164;-83
2021/03/09 12:39:52;;;;;;;23.30;17.93;;;8.60;98.70;;;;;;5054629;28;20177;-84
2021/03/09 12:42:18;;;;;;;21.60;17.03;;;8.50;99.00;;;;;;5072696;28;20176;-79
2021/03/09 12:44:44;;;;;;;23.40;18.03;;;8.30;99.90;;;;;;5053657;28;20179;-81
2021/03/09 12:47:10;;;;;;;17.60;15.50;;;8.10;99.90;;;;;;5072756;28;20702;-80